Time;durP1;ratioP1;P1;durP2;ratioP2;P2;SDS_P1;SDS_P2;PMS_P1;PMS_P2;Temp;Humidity;BMP_temperature;BMP_pressure;BME280_temperature;BME280_humidity;BME280_pressure;Samples;Min_cycle;Max_cycle;Signal;HPM_P1;HPM_P2
2022/03/28 00:02:08;;;;;;;;;;;7.30;99.90;;;;;;4972446;28;20343;-76
2022/03/28 00:04:34;;;;;;;;;;;7.20;99.90;;;;;;4937994;29;19930;-76
2022/03/28 00:07:00;;;;;;;;;;;7.20;99.90;;;;;;4921678;29;20267;-74
2022/03/28 00:09:25;;;;;;;;;;;7.10;99.90;;;;;;4937584;29;20349;-75
2022/03/28 00:11:55;;;;;;;;;;;7.10;99.90;;;;;;4938078;29;20321;-75
2022/03/28 00:14:23;;;;;;;;;;;7.10;99.90;;;;;;4905990;29;19960;-75
2022/03/28 00:16:55;;;;;;;;;;;7.10;99.90;;;;;;4937340;29;19922;-76
2022/03/28 00:19:20;;;;;;;;;;;7.10;99.90;;;;;;4938224;29;20003;-75
2022/03/28 00:21:48;;;;;;;;;;;7.10;99.90;;;;;;4938992;29;19926;-75
2022/03/28 00:27:20;;;;;;;;;;;7.00;99.90;;;;;;4954631;29;19922;-74
2022/03/28 00:29:46;;;;;;;;;;;6.90;99.90;;;;;;4937889;28;19926;-76
2022/03/28 00:32:12;;;;;;;;;;;6.90;99.90;;;;;;4937137;29;19929;-75
2022/03/28 00:34:39;;;;;;;;;;;6.90;99.90;;;;;;4937425;29;19926;-75
2022/03/28 00:37:05;;;;;;;;;;;6.90;99.90;;;;;;4936915;28;19937;-75
2022/03/28 00:39:31;;;;;;;;;;;6.90;99.90;;;;;;4921130;29;20013;-76
2022/03/28 00:42:03;;;;;;;;;;;6.90;99.90;;;;;;4968542;28;19965;-76
2022/03/28 00:44:30;;;;;;;;;;;6.90;99.90;;;;;;4937342;29;20012;-76
2022/03/28 00:46:59;;;;;;;;;;;6.80;99.90;;;;;;4968870;28;19973;-75
2022/03/28 00:52:48;;;;;;;;;;;6.90;99.90;;;;;;4954140;29;19946;-75
2022/03/28 00:55:13;;;;;;;;;;;6.80;99.90;;;;;;4936847;29;20440;-75
2022/03/28 00:57:43;;;;;;;;;;;6.90;99.90;;;;;;4937377;29;19928;-75
2022/03/28 01:00:09;;;;;;;;;;;6.90;99.90;;;;;;4970441;28;19923;-75
2022/03/28 01:02:38;;;;;;;;;;;6.90;99.90;;;;;;4957223;28;20008;-75
2022/03/28 01:05:06;;;;;;;;;;;6.90;99.90;;;;;;4971961;28;20016;-75
2022/03/28 01:07:32;;;;;;;;;;;6.90;99.90;;;;;;4956071;28;20316;-74
2022/03/28 01:10:00;;;;;;;;;;;6.90;99.90;;;;;;4988003;28;19922;-75
2022/03/28 01:12:26;;;;;;;;;;;6.90;99.90;;;;;;4988237;28;20012;-75
2022/03/28 01:14:58;;;;;;;;;;;6.90;99.90;;;;;;4956163;28;19977;-76
2022/03/28 01:20:11;;;;;;;;;;;6.90;99.90;;;;;;4956193;28;19930;-76
2022/03/28 01:22:37;;;;;;;;;;;6.90;99.90;;;;;;4988582;28;19929;-76
2022/03/28 01:25:04;;;;;;;;;;;6.90;99.90;;;;;;4955949;28;19922;-76
2022/03/28 01:27:30;;;;;;;;;;;6.90;99.90;;;;;;4955643;28;20382;-76
2022/03/28 01:29:59;;;;;;;;;;;6.80;99.90;;;;;;4973287;28;20018;-75
2022/03/28 01:32:24;;;;;;;;;;;6.80;99.90;;;;;;4956039;28;19989;-76
2022/03/28 01:34:50;;;;;;;;;;;6.80;99.90;;;;;;4956413;28;19976;-75
2022/03/28 01:37:16;;;;;;;;;;;6.80;99.90;;;;;;4956564;28;20320;-75
2022/03/28 01:39:41;;;;;;;;;;;6.80;99.90;;;;;;4974685;28;19929;-75
2022/03/28 01:42:07;;;;;;;;;;;6.80;99.90;;;;;;4943015;28;19945;-76
2022/03/28 01:44:34;;;;;;;;;;;6.80;99.90;;;;;;4989431;28;19929;-75
2022/03/28 01:47:00;;;;;;;;;;;6.80;99.90;;;;;;4973309;28;19922;-75
2022/03/28 01:49:28;;;;;;;;;;;6.70;99.90;;;;;;4957613;28;19925;-76
2022/03/28 01:51:54;;;;;;;;;;;6.70;99.90;;;;;;4975671;28;19922;-76
2022/03/28 01:54:20;;;;;;;;;;;6.70;99.90;;;;;;4974476;28;20020;-75
2022/03/28 01:56:45;;;;;;;;;;;6.80;99.90;;;;;;4991960;28;19937;-74
2022/03/28 01:59:11;;;;;;;;;;;6.80;99.90;;;;;;4975020;28;19934;-76
2022/03/28 02:01:38;;;;;;;;;;;6.70;99.90;;;;;;4962525;28;19932;-75
2022/03/28 02:04:03;;;;;;;;;;;6.70;99.90;;;;;;4939931;29;19922;-76
2022/03/28 02:06:32;;;;;;;;;;;6.70;99.90;;;;;;4939900;29;19958;-75
2022/03/28 02:09:00;;;;;;;;;;;6.60;99.90;;;;;;4939895;29;19922;-75
2022/03/28 02:11:29;;;;;;;;;;;6.60;99.90;;;;;;4940555;28;19922;-76
2022/03/28 02:13:56;;;;;;;;;;;6.60;99.90;;;;;;4923895;29;19930;-75
2022/03/28 02:16:30;;;;;;;;;;;6.60;99.90;;;;;;4956890;28;19992;-75
2022/03/28 02:18:59;;;;;;;;;;;6.70;99.90;;;;;;4956931;29;20017;-75
2022/03/28 02:21:25;;;;;;;;;;;6.70;99.90;;;;;;4924104;29;20025;-76
2022/03/28 02:23:52;;;;;;;;;;;6.80;99.90;;;;;;4939340;29;20017;-76
2022/03/28 02:26:21;;;;;;;;;;;6.80;99.90;;;;;;4925334;29;19969;-77
2022/03/28 02:28:47;;;;;;;;;;;6.80;99.90;;;;;;4940735;29;19923;-76
2022/03/28 02:31:13;;;;;;;;;;;6.80;99.90;;;;;;4942749;29;19934;-75
2022/03/28 02:33:39;;;;;;;;;;;6.80;99.90;;;;;;4957997;29;19922;-75
2022/03/28 02:36:04;;;;;;;;;;;6.80;99.90;;;;;;4939590;29;19923;-76
2022/03/28 02:38:30;;;;;;;;;;;6.80;99.90;;;;;;4922288;29;19926;-75
2022/03/28 02:40:59;;;;;;;;;;;6.70;99.90;;;;;;4971621;28;19933;-75
2022/03/28 02:43:28;;;;;;;;;;;6.70;99.90;;;;;;4923726;29;20321;-76
2022/03/28 02:45:54;;;;;;;;;;;6.80;99.90;;;;;;4955192;29;19950;-75
2022/03/28 02:48:45;;;;;;;;;;;6.80;99.90;;;;;;4955382;28;19922;-75
2022/03/28 02:51:11;;;;;;;;;;;6.80;99.90;;;;;;4899775;29;19930;-75
2022/03/28 02:53:37;;;;;;;;;;;6.80;99.90;;;;;;4883779;29;19923;-76
2022/03/28 02:56:04;;;;;;;;;;;6.80;99.90;;;;;;4900078;29;19981;-76
2022/03/28 02:58:30;;;;;;;;;;;6.80;99.90;;;;;;4899559;29;19927;-75
2022/03/28 03:00:56;;;;;;;;;;;6.80;99.90;;;;;;4906844;29;20362;-75
2022/03/28 03:03:22;;;;;;;;;;;6.80;99.90;;;;;;4919738;29;19923;-76
2022/03/28 03:05:49;;;;;;;;;;;6.90;99.90;;;;;;4937017;29;19977;-78
2022/03/28 03:08:18;;;;;;;;;;;6.90;99.90;;;;;;4935116;29;19922;-75
2022/03/28 03:10:47;;;;;;;;;;;6.80;99.90;;;;;;4918578;29;20402;-75
2022/03/28 03:13:13;;;;;;;;;;;6.80;99.90;;;;;;4918199;29;19938;-75
2022/03/28 03:15:38;;;;;;;;;;;6.80;99.90;;;;;;4918313;29;19929;-75
2022/03/28 03:18:07;;;;;;;;;;;6.80;99.90;;;;;;4934377;29;19922;-75
2022/03/28 03:20:33;;;;;;;;;;;6.80;99.90;;;;;;4902283;29;19929;-74
2022/03/28 03:23:01;;;;;;;;;;;6.80;99.90;;;;;;4934400;29;19977;-75
2022/03/28 03:25:27;;;;;;;;;;;6.80;99.90;;;;;;4934589;29;19927;-74
2022/03/28 03:27:53;;;;;;;;;;;6.90;99.90;;;;;;4918576;29;20325;-76
2022/03/28 03:30:19;;;;;;;;;;;6.80;99.90;;;;;;4902651;29;19930;-75
2022/03/28 03:32:45;;;;;;;;;;;6.90;99.90;;;;;;4918382;29;19923;-75
2022/03/28 03:35:12;;;;;;;;;;;6.80;99.90;;;;;;4930080;29;19967;-75
2022/03/28 03:37:39;;;;;;;;;;;6.80;99.90;;;;;;4938714;29;20374;-75
2022/03/28 03:40:05;;;;;;;;;;;6.90;99.90;;;;;;4954577;29;20275;-75
2022/03/28 03:42:31;;;;;;;;;;;6.90;99.90;;;;;;4957293;29;19927;-75
2022/03/28 03:44:58;;;;;;;;;;;6.90;99.90;;;;;;4943680;29;19958;-75
2022/03/28 03:47:23;;;;;;;;;;;6.80;99.90;;;;;;4939015;29;19997;-75
2022/03/28 03:49:49;;;;;;;;;;;6.80;99.90;;;;;;4937424;29;20378;-76
2022/03/28 03:52:35;;;;;;;;;;;6.80;99.90;;;;;;4954997;29;19926;-75
2022/03/28 03:55:09;;;;;;;;;;;6.80;99.90;;;;;;4969855;28;19927;-76
2022/03/28 03:57:35;;;;;;;;;;;6.80;99.90;;;;;;4956206;28;20049;-76
2022/03/28 04:00:13;;;;;;;;;;;6.80;99.90;;;;;;4988033;28;19929;-75
2022/03/28 04:02:39;;;;;;;;;;;6.80;99.90;;;;;;4956592;28;19922;-75
2022/03/28 04:05:05;;;;;;;;;;;6.80;99.90;;;;;;4974532;28;19922;-75
2022/03/28 04:07:30;;;;;;;;;;;6.80;99.90;;;;;;4956055;28;19981;-75
2022/03/28 04:09:58;;;;;;;;;;;6.70;99.90;;;;;;4941035;28;19925;-75
2022/03/28 04:12:25;;;;;;;;;;;6.70;99.90;;;;;;4955317;28;20013;-75
2022/03/28 04:14:53;;;;;;;;;;;6.70;99.90;;;;;;4956654;28;19926;-74
2022/03/28 04:17:19;;;;;;;;;;;6.70;99.90;;;;;;4956910;28;20397;-75
2022/03/28 04:19:45;;;;;;;;;;;6.70;99.90;;;;;;4956964;28;19981;-75
2022/03/28 04:22:14;;;;;;;;;;;6.60;99.90;;;;;;4977643;28;19922;-75
2022/03/28 04:24:43;;;;;;;;;;;6.60;99.90;;;;;;4960517;28;20004;-75
2022/03/28 04:27:12;;;;;;;;;;;6.60;99.90;;;;;;4957601;28;19922;-75
2022/03/28 04:29:37;;;;;;;;;;;6.50;99.90;;;;;;4973859;28;20389;-75
2022/03/28 04:32:03;;;;;;;;;;;6.60;99.90;;;;;;4956264;28;20011;-74
2022/03/28 04:34:29;;;;;;;;;;;6.60;99.90;;;;;;4956397;28;20289;-75
2022/03/28 04:36:54;;;;;;;;;;;6.60;99.90;;;;;;4955702;28;19922;-76
2022/03/28 04:39:23;;;;;;;;;;;6.60;99.90;;;;;;4956466;28;19926;-75
2022/03/28 04:41:53;;;;;;;;;;;6.60;99.90;;;;;;4973925;28;19922;-75
2022/03/28 04:44:18;;;;;;;;;;;6.60;99.90;;;;;;4940085;28;19926;-75
2022/03/28 04:46:44;;;;;;;;;;;6.60;99.90;;;;;;4956205;28;19976;-75
2022/03/28 04:49:13;;;;;;;;;;;6.60;99.90;;;;;;4939943;28;20278;-75
2022/03/28 04:51:38;;;;;;;;;;;6.70;99.90;;;;;;4940856;28;19926;-75
2022/03/28 04:54:06;;;;;;;;;;;6.70;99.90;;;;;;4972027;28;20383;-73
2022/03/28 04:56:34;;;;;;;;;;;6.70;99.90;;;;;;4971942;28;19966;-74
2022/03/28 04:59:04;;;;;;;;;;;6.70;99.90;;;;;;4956760;28;19922;-76
2022/03/28 05:01:29;;;;;;;;;;;6.60;99.90;;;;;;4955824;28;19933;-74
2022/03/28 05:03:55;;;;;;;;;;;6.60;99.90;;;;;;4956236;28;19926;-75
2022/03/28 05:06:21;;;;;;;;;;;6.60;99.90;;;;;;4971689;28;19926;-76
2022/03/28 05:08:46;;;;;;;;;;;6.50;99.90;;;;;;4974608;28;19922;-75
2022/03/28 05:11:12;;;;;;;;;;;6.50;99.90;;;;;;4940867;28;19921;-74
2022/03/28 05:13:41;;;;;;;;;;;6.50;99.90;;;;;;4973476;28;19948;-75
2022/03/28 05:16:06;;;;;;;;;;;6.50;99.90;;;;;;4955139;28;20598;-75
2022/03/28 05:18:35;;;;;;;;;;;6.50;99.90;;;;;;4956101;28;20405;-75
2022/03/28 05:21:01;;;;;;;;;;;6.50;99.90;;;;;;4971679;28;19926;-75
2022/03/28 05:23:27;;;;;;;;;;;6.50;99.90;;;;;;4974136;28;19965;-75
2022/03/28 05:25:56;;;;;;;;;;;6.50;99.90;;;;;;4975466;28;20293;-75
2022/03/28 05:28:21;;;;;;;;;;;6.50;99.90;;;;;;4992099;28;19926;-76
2022/03/28 05:30:48;;;;;;;;;;;6.50;99.90;;;;;;4975895;28;19929;-76
2022/03/28 05:33:14;;;;;;;;;;;6.50;99.90;;;;;;4959383;28;19922;-76
2022/03/28 05:35:42;;;;;;;;;;;6.50;99.90;;;;;;4959935;28;20402;-74
2022/03/28 05:38:12;;;;;;;;;;;6.60;99.90;;;;;;4959163;28;19929;-75
2022/03/28 05:40:37;;;;;;;;;;;6.60;99.90;;;;;;4992247;28;20293;-75
2022/03/28 05:43:03;;;;;;;;;;;6.60;99.90;;;;;;4992056;28;19921;-75
2022/03/28 05:45:29;;;;;;;;;;;6.60;99.90;;;;;;4991736;28;20013;-76
2022/03/28 05:47:57;;;;;;;;;;;6.60;99.90;;;;;;4959708;28;19934;-75
2022/03/28 05:50:23;;;;;;;;;;;6.60;99.90;;;;;;4975804;28;19929;-76
2022/03/28 05:52:49;;;;;;;;;;;6.70;99.90;;;;;;4959138;28;19922;-75
2022/03/28 05:55:14;;;;;;;;;;;6.60;99.90;;;;;;4959073;28;19922;-75
2022/03/28 05:57:40;;;;;;;;;;;6.70;99.90;;;;;;4975035;28;19926;-75
2022/03/28 06:00:09;;;;;;;;;;;6.70;99.90;;;;;;4959276;28;19930;-75
2022/03/28 06:02:36;;;;;;;;;;;6.70;99.90;;;;;;4958874;28;19922;-75
2022/03/28 06:05:01;;;;;;;;;;;6.70;99.90;;;;;;4958972;28;20009;-75
2022/03/28 06:07:27;;;;;;;;;;;6.70;99.90;;;;;;4942805;28;20017;-75
2022/03/28 06:09:53;;;;;;;;;;;6.70;99.90;;;;;;4942926;28;19928;-75
2022/03/28 06:12:18;;;;;;;;;;;6.70;99.90;;;;;;4958478;28;19922;-75
2022/03/28 06:14:44;;;;;;;;;;;6.80;99.90;;;;;;4942779;28;19921;-75
2022/03/28 06:17:11;;;;;;;;;;;6.80;99.90;;;;;;4958997;28;19925;-75
2022/03/28 06:19:37;;;;;;;;;;;6.80;99.90;;;;;;4975153;28;20281;-75
2022/03/28 06:22:04;;;;;;;;;;;6.80;99.90;;;;;;4958935;28;19928;-75
2022/03/28 06:24:31;;;;;;;;;;;6.80;99.90;;;;;;4942638;28;19922;-76
2022/03/28 06:26:57;;;;;;;;;;;6.80;99.90;;;;;;4942345;28;19922;-77
2022/03/28 06:29:23;;;;;;;;;;;6.90;99.90;;;;;;4958686;28;20267;-75
2022/03/28 06:31:48;;;;;;;;;;;6.90;99.90;;;;;;4958431;28;19929;-75
2022/03/28 06:34:16;;;;;;;;;;;6.90;99.90;;;;;;4975141;28;19990;-74
2022/03/28 06:36:44;;;;;;;;;;;6.90;99.90;;;;;;4959070;28;19976;-74
2022/03/28 06:39:10;;;;;;;;;;;7.00;99.90;;;;;;4943515;28;19926;-75
2022/03/28 06:41:39;;;;;;;;;;;7.00;99.90;;;;;;4959836;28;19926;-74
2022/03/28 06:44:07;;;;;;;;;;;7.00;99.90;;;;;;4942438;28;19918;-75
2022/03/28 06:46:33;;;;;;;;;;;7.00;99.90;;;;;;4974522;28;20020;-76
2022/03/28 06:49:02;;;;;;;;;;;7.00;99.90;;;;;;4958052;28;19922;-76
2022/03/28 06:51:29;;;;;;;;;;;7.00;99.90;;;;;;4942041;28;19926;-76
2022/03/28 06:53:55;;;;;;;;;;;7.10;99.90;;;;;;4942008;28;20084;-76
2022/03/28 06:56:23;;;;;;;;;;;7.10;99.90;;;;;;4957838;28;19937;-74
2022/03/28 06:58:50;;;;;;;;;;;7.10;99.90;;;;;;4926055;28;19929;-74
2022/03/28 07:01:19;;;;;;;;;;;7.20;99.90;;;;;;4975668;28;19926;-75
2022/03/28 07:03:46;;;;;;;;;;;7.10;99.90;;;;;;4958017;28;19937;-75
2022/03/28 07:06:13;;;;;;;;;;;7.20;99.90;;;;;;4941607;28;19921;-75
2022/03/28 07:08:43;;;;;;;;;;;7.20;99.90;;;;;;4974674;28;19921;-75
2022/03/28 07:11:14;;;;;;;;;;;7.20;99.90;;;;;;4975467;28;19922;-76
2022/03/28 07:13:39;;;;;;;;;;;7.20;99.90;;;;;;4941942;28;19991;-75
2022/03/28 07:16:05;;;;;;;;;;;7.30;99.90;;;;;;4973944;28;19938;-75
2022/03/28 07:18:37;;;;;;;;;;;7.30;99.90;;;;;;4976004;28;19922;-75
2022/03/28 07:21:06;;;;;;;;;;;7.40;99.90;;;;;;4942435;28;20069;-76
2022/03/28 07:23:31;;;;;;;;;;;7.40;99.90;;;;;;4957900;28;19925;-75
2022/03/28 07:26:00;;;;;;;;;;;7.50;99.90;;;;;;4959278;28;19926;-75
2022/03/28 07:28:26;;;;;;;;;;;7.50;99.90;;;;;;4991155;28;20263;-75
2022/03/28 07:30:51;;;;;;;;;;;7.60;99.90;;;;;;4957488;28;20337;-74
2022/03/28 07:33:18;;;;;;;;;;;7.60;99.90;;;;;;4957297;28;19922;-75
2022/03/28 07:35:45;;;;;;;;;;;7.60;99.90;;;;;;4957708;28;19922;-75
2022/03/28 07:38:11;;;;;;;;;;;7.60;99.90;;;;;;4957152;28;19926;-76
2022/03/28 07:40:43;;;;;;;;;;;7.60;99.90;;;;;;4974453;28;19922;-74
2022/03/28 07:43:08;;;;;;;;;;;7.70;99.90;;;;;;4957524;28;19926;-74
2022/03/28 07:45:34;;;;;;;;;;;7.80;99.90;;;;;;4989909;28;19945;-74
2022/03/28 07:48:00;;;;;;;;;;;7.80;99.90;;;;;;4957555;28;19977;-75
2022/03/28 07:50:26;;;;;;;;;;;7.80;99.90;;;;;;4957068;28;20020;-75
2022/03/28 07:52:52;;;;;;;;;;;7.70;99.90;;;;;;4956883;28;19933;-76
2022/03/28 07:55:18;;;;;;;;;;;7.70;99.90;;;;;;4957155;28;19922;-75
2022/03/28 07:57:44;;;;;;;;;;;7.80;99.90;;;;;;4972127;28;19922;-76
2022/03/28 08:00:15;;;;;;;;;;;7.90;99.90;;;;;;4956825;28;20311;-75
2022/03/28 08:02:43;;;;;;;;;;;7.90;99.90;;;;;;4957275;28;20376;-75
2022/03/28 08:05:12;;;;;;;;;;;8.00;99.90;;;;;;4973635;28;20297;-74
2022/03/28 08:07:38;;;;;;;;;;;8.00;99.90;;;;;;4940974;28;20369;-74
2022/03/28 08:10:05;;;;;;;;;;;8.00;99.90;;;;;;4973102;28;19921;-75
2022/03/28 08:12:31;;;;;;;;;;;8.20;99.90;;;;;;4973078;28;19926;-75
2022/03/28 08:14:57;;;;;;;;;;;8.20;99.90;;;;;;4956451;28;20385;-76
2022/03/28 08:17:23;;;;;;;;;;;8.20;99.90;;;;;;4956982;28;19933;-76
2022/03/28 08:19:49;;;;;;;;;;;8.20;99.90;;;;;;4956280;28;20452;-76
2022/03/28 08:22:16;;;;;;;;;;;8.10;99.90;;;;;;4973251;28;19978;-75
2022/03/28 08:24:43;;;;;;;;;;;8.10;99.90;;;;;;4941163;28;19918;-75
2022/03/28 08:27:12;;;;;;;;;;;8.00;99.90;;;;;;4972955;28;19928;-75
2022/03/28 08:29:38;;;;;;;;;;;8.00;99.90;;;;;;4940584;28;20300;-75
2022/03/28 08:32:04;;;;;;;;;;;8.10;99.90;;;;;;4972832;28;19926;-75
2022/03/28 08:34:30;;;;;;;;;;;8.10;99.90;;;;;;4940503;28;19938;-75
2022/03/28 08:36:56;;;;;;;;;;;8.00;99.90;;;;;;4956314;28;19930;-75
2022/03/28 08:39:26;;;;;;;;;;;8.10;99.90;;;;;;4974017;28;19968;-76
2022/03/28 08:41:55;;;;;;;;;;;8.00;99.90;;;;;;4957136;28;19969;-75
2022/03/28 08:44:23;;;;;;;;;;;8.10;99.90;;;;;;4956715;28;19973;-75
2022/03/28 08:46:50;;;;;;;;;;;8.10;99.90;;;;;;4940121;28;19926;-75
2022/03/28 08:49:18;;;;;;;;;;;8.10;99.90;;;;;;4956058;28;20017;-76
2022/03/28 08:51:45;;;;;;;;;;;8.20;99.90;;;;;;4940433;28;19926;-75
2022/03/28 08:54:12;;;;;;;;;;;8.20;99.90;;;;;;4972171;28;19977;-75
2022/03/28 08:56:41;;;;;;;;;;;8.30;99.90;;;;;;4973580;28;19925;-76
2022/03/28 08:59:07;;;;;;;;;;;8.40;99.90;;;;;;4955203;28;19933;-75
2022/03/28 09:01:33;;;;;;;;;;;8.60;99.90;;;;;;4939816;28;20403;-76
2022/03/28 09:04:06;;;;;;;;;;;8.60;99.90;;;;;;4955907;28;19926;-76
2022/03/28 09:06:34;;;;;;;;;;;8.60;99.90;;;;;;4955695;28;19976;-74
2022/03/28 09:09:09;;;;;;;;;;;8.70;99.90;;;;;;4955842;28;19933;-76
2022/03/28 09:11:34;;;;;;;;;;;8.80;99.90;;;;;;4955988;28;19929;-75
2022/03/28 09:14:00;;;;;;;;;;;8.90;99.90;;;;;;4940230;28;19926;-76
2022/03/28 09:16:34;;;;;;;;;;;8.80;99.90;;;;;;4956650;28;19922;-75
2022/03/28 09:19:01;;;;;;;;;;;8.90;99.90;;;;;;4956875;28;19977;-75
2022/03/28 09:21:27;;;;;;;;;;;8.90;99.90;;;;;;4956369;28;20381;-75
2022/03/28 09:23:54;;;;;;;;;;;8.80;99.90;;;;;;4940452;28;19951;-75
2022/03/28 09:26:25;;;;;;;;;;;9.00;99.90;;;;;;4956330;28;20005;-75
2022/03/28 09:28:54;;;;;;;;;;;9.00;99.90;;;;;;4956041;28;19938;-75
2022/03/28 09:31:30;;;;;;;;;;;9.10;99.90;;;;;;4955736;28;19922;-74
2022/03/28 09:34:00;;;;;;;;;;;9.10;99.90;;;;;;4955600;28;19932;-75
2022/03/28 09:36:38;;;;;;;;;;;9.20;99.90;;;;;;4973377;28;19986;-76
2022/03/28 09:39:05;;;;;;;;;;;9.20;99.90;;;;;;4955545;28;19973;-76
2022/03/28 09:41:32;;;;;;;;;;;9.30;99.90;;;;;;4955634;28;19929;-76
2022/03/28 09:43:57;;;;;;;;;;;9.50;99.90;;;;;;4954955;28;19925;-76
2022/03/28 09:46:31;;;;;;;;;;;9.60;99.90;;;;;;4955600;28;19926;-74
2022/03/28 09:49:00;;;;;;;;;;;9.60;99.90;;;;;;4955594;28;19926;-75
2022/03/28 09:51:26;;;;;;;;;;;9.70;99.90;;;;;;4972989;28;19933;-75
2022/03/28 09:53:52;;;;;;;;;;;9.50;99.90;;;;;;4973229;28;19972;-75
2022/03/28 09:56:18;;;;;;;;;;;9.50;99.90;;;;;;4955655;28;19922;-76
2022/03/28 09:58:47;;;;;;;;;;;9.50;99.90;;;;;;4955252;28;19922;-75
2022/03/28 10:01:14;;;;;;;;;;;9.50;99.90;;;;;;4955240;28;20409;-75
2022/03/28 10:03:40;;;;;;;;;;;9.50;99.90;;;;;;4955698;28;19989;-75
2022/03/28 10:06:09;;;;;;;;;;;9.40;99.90;;;;;;4955976;28;20442;-75
2022/03/28 10:08:35;;;;;;;;;;;9.60;99.90;;;;;;4955573;28;20013;-75
2022/03/28 10:11:01;;;;;;;;;;;9.80;99.90;;;;;;4958758;28;19933;-75
2022/03/28 10:13:29;;;;;;;;;;;9.80;99.90;;;;;;4975948;28;19926;-75
2022/03/28 10:15:55;;;;;;;;;;;9.70;99.90;;;;;;4977239;28;19922;-75
2022/03/28 10:18:20;;;;;;;;;;;9.60;99.90;;;;;;4958847;28;20044;-75
2022/03/28 10:20:52;;;;;;;;;;;9.50;99.90;;;;;;4976422;28;19925;-75
2022/03/28 10:23:19;;;;;;;;;;;9.60;99.90;;;;;;4976388;28;19975;-76
2022/03/28 10:25:45;;;;;;;;;;;9.70;99.90;;;;;;4942978;28;19969;-75
2022/03/28 10:28:11;;;;;;;;;;;9.70;99.90;;;;;;4942560;28;20377;-75
2022/03/28 10:30:38;;;;;;;;;;;9.90;99.90;;;;;;4943212;28;19918;-75
2022/03/28 10:33:06;;;;;;;;;;;10.10;99.90;;;;;;4975948;28;20588;-75
2022/03/28 10:35:32;;;;;;;;;;;10.30;99.90;;;;;;4958650;28;20380;-76
2022/03/28 10:38:13;;;;;;;;;;;10.50;99.90;;;;;;4942344;28;20013;-76
2022/03/28 10:40:51;;;;;;;;;;;10.60;99.90;;;;;;4942416;28;19922;-77
2022/03/28 10:43:17;;;;;;;;;;;10.70;99.90;;;;;;4974619;28;20377;-76
2022/03/28 10:45:46;;;;;;;;;;;10.70;99.90;;;;;;4943095;28;20012;-76
2022/03/28 10:48:12;;;;;;;;;;;10.80;99.90;;;;;;4959196;28;20348;-76
2022/03/28 10:50:50;;;;;;;;;;;10.80;99.90;;;;;;4959088;28;19922;-75
2022/03/28 10:53:18;;;;;;;;;;;11.00;99.90;;;;;;4976933;28;19934;-75
2022/03/28 10:55:51;;;;;;;;;;;11.20;99.90;;;;;;4959954;28;19930;-75
2022/03/28 10:58:16;;;;;;;;;;;11.20;99.90;;;;;;4958096;28;19926;-75
2022/03/28 11:01:01;;;;;;;;;;;11.30;99.90;;;;;;4941962;28;19969;-76
2022/03/28 11:04:00;;;;;;;;;;;11.40;99.90;;;;;;4990329;28;19921;-76
2022/03/28 11:06:45;;;;;;;;;;;11.50;99.90;;;;;;4950261;28;19937;-76
2022/03/28 11:09:11;;;;;;;;;;;11.40;99.90;;;;;;4958414;28;20016;-76
2022/03/28 11:11:54;;;;;;;;;;;11.60;99.90;;;;;;4942149;28;19929;-75
2022/03/28 11:14:37;;;;;;;;;;;11.60;99.90;;;;;;4957878;28;20593;-75
2022/03/28 11:17:12;;;;;;;;;;;11.70;99.90;;;;;;4975554;28;19929;-76
2022/03/28 11:19:50;;;;;;;;;;;11.50;99.90;;;;;;4990368;28;19977;-76
2022/03/28 11:22:37;;;;;;;;;;;11.10;99.90;;;;;;4990017;28;19973;-76
2022/03/28 11:25:03;;;;;;;;;;;10.80;99.90;;;;;;4958024;28;20401;-76
2022/03/28 11:27:34;;;;;;;;;;;10.90;99.90;;;;;;4973339;28;19961;-76
2022/03/28 11:30:11;;;;;;;;;;;11.20;99.90;;;;;;4989780;28;19934;-76
2022/03/28 11:32:45;;;;;;;;;;;11.30;99.90;;;;;;4976403;28;20373;-76
2022/03/28 11:35:13;;;;;;;;;;;11.60;99.90;;;;;;4957599;28;19926;-76
2022/03/28 11:37:47;;;;;;;;;;;11.80;99.90;;;;;;4975673;28;19937;-76
2022/03/28 11:40:13;;;;;;;;;;;11.90;99.90;;;;;;4990770;28;19922;-75
2022/03/28 11:42:44;;;;;;;;;;;12.00;99.90;;;;;;4975429;28;20393;-75
2022/03/28 11:45:11;;;;;;;;;;;12.10;99.90;;;;;;4958038;28;19929;-76
2022/03/28 11:47:37;;;;;;;;;;;12.20;99.90;;;;;;4975809;28;20400;-76
2022/03/28 11:50:20;;;;;;;;;;;12.30;99.90;;;;;;4898466;29;19924;-76
2022/03/28 11:52:52;;;;;;;;;;;12.30;99.90;;;;;;4884172;29;19923;-77
2022/03/28 11:55:21;;;;;;;;;;;12.30;99.90;;;;;;4896727;29;19924;-76
2022/03/28 12:00:34;;;;;;;;;;;11.90;99.90;;;;;;4891988;29;19924;-76
2022/03/28 12:03:03;;;;;;;;;;;11.90;99.90;;;;;;4846324;29;19928;-76
2022/03/28 12:05:30;;;;;;;;;;;11.90;99.90;;;;;;4846151;29;19974;-76
2022/03/28 12:07:57;;;;;;;;;;;11.90;99.90;;;;;;4861494;29;19980;-76
2022/03/28 12:10:28;;;;;;;;;;;12.00;99.90;;;;;;4861515;29;19927;-76
2022/03/28 12:13:06;;;;;;;;;;;11.80;99.90;;;;;;4877157;29;19928;-77
2022/03/28 12:15:38;;;;;;;;;;;11.70;99.90;;;;;;4832299;29;20380;-76
2022/03/28 12:18:05;;;;;;;;;;;11.80;99.90;;;;;;4846616;29;19927;-75
2022/03/28 12:20:36;;;;;;;;;;;11.90;99.90;;;;;;4877038;29;19924;-76
2022/03/28 12:23:04;;;;;;;;;;;11.80;99.90;;;;;;4846562;29;20057;-75
2022/03/28 12:25:35;;;;;;;;;;;11.80;99.90;;;;;;4845902;29;19931;-77
2022/03/28 12:28:24;;;;;;;;;;;11.80;99.90;;;;;;4940421;28;19929;-76
2022/03/28 12:30:51;;;;;;;;;;;11.80;99.90;;;;;;4957235;28;19922;-75
2022/03/28 12:33:21;;;;;;;;;;;11.90;99.90;;;;;;4957480;28;19926;-76
2022/03/28 12:35:49;;;;;;;;;;;11.90;99.90;;;;;;4958541;28;20558;-76
2022/03/28 12:38:16;;;;;;;;;;;12.00;99.90;;;;;;4959345;28;19926;-75
2022/03/28 12:40:51;;;;;;;;;;;11.90;99.90;;;;;;4958836;28;19922;-75
2022/03/28 12:43:27;;;;;;;;;;;11.90;99.90;;;;;;4956121;28;19926;-77
2022/03/28 12:45:54;;;;;;;;;;;11.80;99.90;;;;;;4940847;28;20436;-75
2022/03/28 12:48:21;;;;;;;;;;;11.90;99.90;;;;;;4940376;28;19932;-77
2022/03/28 12:50:50;;;;;;;;;;;11.90;99.90;;;;;;4988512;28;20014;-76
2022/03/28 12:53:22;;;;;;;;;;;11.70;99.90;;;;;;4988390;28;19922;-76
2022/03/28 12:55:48;;;;;;;;;;;11.60;99.90;;;;;;4972042;28;19973;-76
2022/03/28 12:58:17;;;;;;;;;;;11.60;99.90;;;;;;4955959;28;19965;-76
2022/03/28 13:00:43;;;;;;;;;;;11.50;99.90;;;;;;4987677;28;19962;-76
2022/03/28 13:03:10;;;;;;;;;;;11.50;99.90;;;;;;4956016;28;19975;-77
2022/03/28 13:05:36;;;;;;;;;;;11.20;99.90;;;;;;4988667;28;20309;-76
2022/03/28 13:08:10;;;;;;;;;;;11.10;99.90;;;;;;4956097;28;19929;-76
2022/03/28 13:10:38;;;;;;;;;;;11.00;99.90;;;;;;4956502;28;19930;-76
2022/03/28 13:13:07;;;;;;;;;;;10.90;99.90;;;;;;4956313;28;19926;-77
2022/03/28 13:15:36;;;;;;;;;;;10.80;99.90;;;;;;4972163;28;19925;-76
2022/03/28 13:18:08;;;;;;;;;;;10.80;99.90;;;;;;4989495;28;19930;-77
2022/03/28 13:20:34;;;;;;;;;;;10.70;99.90;;;;;;4956460;28;19987;-76
2022/03/28 13:23:01;;;;;;;;;;;10.80;99.90;;;;;;4973273;28;20361;-75
2022/03/28 13:25:41;;;;;;;;;;;10.80;99.90;;;;;;4959310;28;19925;-76
2022/03/28 13:28:11;;;;;;;;;;;10.70;99.90;;;;;;4974218;28;20373;-76
2022/03/28 13:30:46;;;;;;;;;;;10.70;99.90;;;;;;4958488;28;19929;-76
2022/03/28 13:33:15;;;;;;;;;;;10.70;99.90;;;;;;4955797;28;20308;-77
2022/03/28 13:35:51;;;;;;;;;;;10.80;99.90;;;;;;4988044;28;19929;-77
2022/03/28 13:38:19;;;;;;;;;;;10.90;99.90;;;;;;4971241;28;19926;-76
2022/03/28 13:40:48;;;;;;;;;;;11.00;99.90;;;;;;4973388;28;19949;-76
2022/03/28 13:43:14;;;;;;;;;;;11.00;99.90;;;;;;4956361;28;20047;-75
2022/03/28 13:45:41;;;;;;;;;;;11.10;99.90;;;;;;4959467;28;19973;-75
2022/03/28 13:48:09;;;;;;;;;;;10.90;99.90;;;;;;4975724;28;19948;-76
2022/03/28 13:50:42;;;;;;;;;;;10.80;99.90;;;;;;4992243;28;19926;-76
2022/03/28 13:53:10;;;;;;;;;;;11.00;99.90;;;;;;4975553;28;19933;-76
2022/03/28 13:55:37;;;;;;;;;;;11.00;99.90;;;;;;4991530;28;20292;-76
2022/03/28 13:58:07;;;;;;;;;;;11.10;99.90;;;;;;4991622;28;19933;-77
2022/03/28 14:00:58;;;;;;;;;;;11.00;99.90;;;;;;4976496;28;19973;-76
2022/03/28 14:03:30;;;;;;;;;;;10.80;99.90;;;;;;4960714;28;19929;-75
2022/03/28 14:05:56;;;;;;;;;;;10.80;99.90;;;;;;4943250;28;19926;-76
2022/03/28 14:08:23;;;;;;;;;;;10.50;99.90;;;;;;4959206;28;19922;-76
2022/03/28 14:10:50;;;;;;;;;;;10.60;99.90;;;;;;4943449;28;20289;-75
2022/03/28 14:13:17;;;;;;;;;;;10.50;99.90;;;;;;4944060;28;19930;-76
2022/03/28 14:15:45;;;;;;;;;;;10.30;99.90;;;;;;4944588;28;19944;-76
2022/03/28 14:18:11;;;;;;;;;;;10.40;99.90;;;;;;4961089;28;19929;-75
2022/03/28 14:20:38;;;;;;;;;;;10.50;99.90;;;;;;4943598;28;19999;-76
2022/03/28 14:23:05;;;;;;;;;;;10.50;99.90;;;;;;4958620;28;19922;-76
2022/03/28 14:25:32;;;;;;;;;;;10.70;99.90;;;;;;4958201;28;20362;-76
2022/03/28 14:27:59;;;;;;;;;;;10.80;99.90;;;;;;4958713;28;20364;-76
2022/03/28 14:30:26;;;;;;;;;;;10.80;99.90;;;;;;4942689;28;19929;-76
2022/03/28 14:33:02;;;;;;;;;;;10.80;99.90;;;;;;4958809;28;19932;-76
2022/03/28 14:35:37;;;;;;;;;;;10.60;99.90;;;;;;4944138;28;19926;-76
2022/03/28 14:38:03;;;;;;;;;;;10.60;99.90;;;;;;4958558;28;20500;-76
2022/03/28 14:40:29;;;;;;;;;;;10.60;99.90;;;;;;4958179;28;20005;-77
2022/03/28 14:42:54;;;;;;;;;;;10.40;99.90;;;;;;4958534;28;19922;-77
2022/03/28 14:45:21;;;;;;;;;;;10.30;99.90;;;;;;4974162;28;19952;-76